Wednesday, January 17, 2018, 1:19 PM GMT
Back to Local

CYPQ, Peterborough Airport

Location: , , Canada Lat: 44.233
Local Time: 1:19 PM GMT (13:19 GMT) Lon: -78.367
Time Zone: GMT Elev: 626 ft

Show me the last for .
Show Decoded

2018-01-17 13:00 METAR CYPQ 171300Z AUTO 24002KT 5SM BR BKN045 M12/M12 A3032 RMK SLP284 =
2018-01-17 12:52 METAR CYPQ 171252Z AUTO 00000KT 5SM -SN BKN045 M11/M11 A3032 RMK SLP284 =
2018-01-17 12:00 METAR CYPQ 171200Z AUTO VRB02KT 7SM -SN OVC039 M10/M10 A3033 RMK SLP288 =
2018-01-17 11:11 METAR CYPQ 171111Z AUTO VRB02KT 6SM -SN OVC039 M10/M10 A3033 RMK SLP289 =
2018-01-17 11:00 METAR CYPQ 171100Z AUTO 34002KT 5SM -SN OVC039 M10/M10 A3033 RMK SLP287 =
2018-01-17 10:32 METAR CYPQ 171032Z AUTO 00000KT 4SM -SN SCT019 BKN027 OVC039 M10/M10 A3033 RMK
                 SLP285 =
2018-01-17 10:17 METAR CYPQ 171017Z AUTO 00000KT 3SM -SN BKN021 OVC027 M10/M10 A3033 RMK SLP285 =
2018-01-17 10:03 METAR CYPQ 171003Z AUTO 00000KT 2 1/2SM -SN BKN022 OVC042 M10/M10 A3033 RMK VIS
                 VRB 1 1/2-3 SLP285 =
2018-01-17 10:01 METAR CYPQ 171001Z AUTO 00000KT 2 1/2SM -SN SCT022 OVC042 M10/M10 A3033 RMK VIS
                 VRB 1 1/2-3 SLP285 =
2018-01-17 10:00 METAR CYPQ 171000Z AUTO 00000KT 3SM -SN SCT022 OVC042 M10/M10 A3032 RMK SLP284 =
2018-01-17 09:37 METAR CYPQ 170937Z AUTO 00000KT 3SM -SN OVC038 M09/M10 A3033 RMK SLP285 =
2018-01-17 09:35 METAR CYPQ 170935Z AUTO 00000KT 2 1/2SM -SN OVC038 M09/M10 A3033 RMK VIS VRB 1
                 1/2-3 SLP285 =
2018-01-17 09:26 METAR CYPQ 170926Z AUTO 00000KT 2 1/4SM -SN OVC038 M09/M10 A3033 RMK VIS VRB 1
                 1/4-3 SLP285 =
2018-01-17 09:21 METAR CYPQ 170921Z AUTO 00000KT 2 1/2SM -SN OVC038 M09/M10 A3033 RMK VIS VRB 1
                 1/4-3 SLP285 =
2018-01-17 09:17 METAR CYPQ 170917Z AUTO 00000KT 2 1/4SM -SN FEW015 OVC038 M09/M10 A3033 RMK VIS
                 VRB 1 1/4-3 SLP285 =
2018-01-17 09:05 METAR CYPQ 170905Z AUTO 00000KT 3SM -SN OVC038 M09/M10 A3033 RMK SLP286 =
2018-01-17 09:03 METAR CYPQ 170903Z AUTO 00000KT 2 1/2SM -SN OVC038 M09/M10 A3033 RMK VIS VRB 1
                 1/4-3 SLP286 =
2018-01-17 09:00 METAR CYPQ 170900Z AUTO 32002KT 2 1/4SM -SN OVC038 M09/M10 A3033 RMK VIS VRB 1
                 1/4-3 SLP285 =
2018-01-17 08:55 METAR CYPQ 170855Z AUTO 31003KT 2 1/4SM -SN OVC038 M09/M10 A3033 RMK VIS VRB 1
                 1/4-3 SLP286 =
2018-01-17 08:45 METAR CYPQ 170845Z AUTO VRB02KT 3SM -SN OVC038 M09/M10 A3033 RMK SLP287 =
2018-01-17 08:42 METAR CYPQ 170842Z AUTO VRB02KT 2 1/2SM -SN OVC038 M09/M10 A3033 RMK SLP287 =
2018-01-17 08:32 METAR CYPQ 170832Z AUTO 00000KT 2SM -SN OVC038 M09/M10 A3033 RMK SLP287 =
2018-01-17 08:30 METAR CYPQ 170830Z AUTO 00000KT 2 1/2SM -SN OVC038 M09/M10 A3033 RMK VIS VRB 1
                 1/4-3 SLP287 =
2018-01-17 08:00 METAR CYPQ 170800Z AUTO 00000KT 3SM -SN OVC036 M09/M10 A3034 RMK SLP288 =
2018-01-17 07:17 METAR CYPQ 170717Z AUTO 26002KT 3SM -SN FEW013 OVC034 M09/M10 A3033 RMK SLP287 =
2018-01-17 07:11 METAR CYPQ 170711Z AUTO 28003KT 2 1/2SM -SN FEW013 OVC034 M09/M10 A3033 RMK VIS
                 VRB 1 1/4-3 SLP287 =
2018-01-17 07:00 METAR CYPQ 170700Z AUTO 27003KT 3SM -SN FEW013 OVC034 M09/M10 A3033 RMK SLP287 =
2018-01-17 06:43 METAR CYPQ 170643Z AUTO 29002KT 3SM -SN FEW013 OVC036 M09/M10 A3033 RMK SLP287 =
2018-01-17 06:23 METAR CYPQ 170623Z AUTO 00000KT 2 1/2SM -SN OVC036 M09/M10 A3033 RMK VIS VRB 1
                 3/4-3 SLP286 =
2018-01-17 06:17 METAR CYPQ 170617Z AUTO 00000KT 2 1/4SM -SN OVC036 M09/M10 A3033 RMK VIS VRB 1
                 1/4-3 SLP285 =
2018-01-17 06:08 METAR CYPQ 170608Z AUTO 00000KT 3SM -SN OVC036 M09/M10 A3033 RMK SLP286 =
2018-01-17 06:05 METAR CYPQ 170605Z AUTO 00000KT 2 1/2SM -SN OVC036 M09/M10 A3033 RMK VIS VRB 1
                 1/2-3 SLP287 =
2018-01-17 06:00 METAR CYPQ 170600Z AUTO 00000KT 2SM -SN OVC036 M09/M10 A3033 RMK VIS VRB 1 1/4-3
                 SLP287 =
2018-01-17 05:56 METAR CYPQ 170556Z AUTO 00000KT 2SM -SN OVC036 M09/M10 A3033 RMK VIS VRB 1 1/4-3
                 SLP288 =
2018-01-17 05:25 METAR CYPQ 170525Z AUTO 00000KT 2 1/2SM -SN FEW030 OVC038 M09/M10 A3033 RMK VIS
                 VRB 1 1/2-3 SLP288 =
2018-01-17 05:00 METAR CYPQ 170500Z AUTO VRB02KT 2SM -SN FEW016 BKN029 OVC040 M09/M10 A3034 RMK
                 VIS VRB 1 1/4-3 SLP290 =
2018-01-17 04:52 METAR CYPQ 170452Z AUTO 02002KT 1 3/4SM -SN FEW016 BKN025 OVC040 M09/M10 A3034
                 RMK VIS VRB 1 1/4-3 SLP291 =
2018-01-17 04:46 METAR CYPQ 170446Z AUTO VRB02KT 1 1/2SM -SN BKN023 OVC040 M09/M10 A3035 RMK
                 SLP292 =
2018-01-17 04:25 METAR CYPQ 170425Z AUTO 32002KT 1 1/4SM -SN OVC023 M09/M10 A3035 RMK SLP293 =
2018-01-17 04:09 METAR CYPQ 170409Z AUTO 00000KT 1 1/4SM -SN OVC027 M09/M10 A3035 RMK SLP294 =
2018-01-17 04:00 METAR CYPQ 170400Z AUTO VRB02KT 1 3/4SM -SN OVC027 M09/M10 A3035 RMK SLP294 =
2018-01-17 03:17 METAR CYPQ 170317Z AUTO 28004KT 2 1/4SM -SN BKN029 OVC048 M09/M10 A3035 RMK VIS
                 VRB 1 1/4-3 SLP294 =
2018-01-17 03:04 METAR CYPQ 170304Z AUTO VRB02KT 5SM -SN SCT033 BKN042 OVC050 M10/M10 A3035 RMK
                 SLP295 =
2018-01-17 03:00 METAR CYPQ 170300Z AUTO 00000KT 7SM -SN SCT038 OVC050 M10/M10 A3035 RMK SLP294 =
2018-01-17 02:41 METAR CYPQ 170241Z AUTO VRB02KT 9SM -SN OVC055 M10/M11 A3035 RMK SLP294 =
2018-01-17 02:35 METAR CYPQ 170235Z AUTO 00000KT 9SM OVC055 M10/M11 A3035 RMK SLP293 =
2018-01-17 02:00 METAR CYPQ 170200Z AUTO 02003KT 020V110 9SM -SN OVC048 M10/M11 A3035 RMK SLP295
                 =
2018-01-17 01:55 METAR CYPQ 170155Z AUTO 00000KT 9SM -SN OVC048 M10/M11 A3035 RMK SLP296 =
2018-01-17 01:41 METAR CYPQ 170141Z AUTO 00000KT 9SM OVC048 M10/M11 A3036 RMK SLP297 =
2018-01-17 01:29 METAR CYPQ 170129Z AUTO 20003KT 190V280 9SM -SN OVC050 M11/M11 A3036 RMK SLP297
                 =
2018-01-17 01:00 METAR CYPQ 170100Z AUTO VRB03KT 9SM OVC050 M10/M11 A3036 RMK SLP297 =
2018-01-17 00:00 METAR CYPQ 170000Z AUTO 20002KT 9SM OVC050 M12/M13 A3036 RMK SLP300 =
2018-01-16 23:00 METAR CYPQ 162300Z AUTO 00000KT 9SM CLR M12/M12 A3035 RMK SLP295 =
2018-01-16 22:00 METAR CYPQ 162200Z AUTO 10003KT 9SM CLR M07/M10 A3034 RMK SLP290 =
2018-01-16 21:00 METAR CYPQ 162100Z AUTO VRB02KT 9SM FEW024 M05/M09 A3033 RMK SLP288 =
2018-01-16 20:51 METAR CYPQ 162051Z AUTO VRB02KT 9SM SCT024 M05/M09 A3033 RMK SLP287 =
2018-01-16 20:04 METAR CYPQ 162004Z AUTO VRB02KT 9SM BKN022 M05/M09 A3033 RMK SLP287 =
2018-01-16 20:00 METAR CYPQ 162000Z AUTO 24003KT 100V260 9SM SCT022 M06/M09 A3033 RMK SLP286 =
2018-01-16 19:32 METAR CYPQ 161932Z AUTO 00000KT 9SM SCT020 M06/M09 A3033 RMK SLP286 =
2018-01-16 19:14 METAR CYPQ 161914Z AUTO 00000KT 9SM BKN018 M07/M10 A3033 RMK SLP287 =
2018-01-16 19:06 METAR CYPQ 161906Z AUTO VRB02KT 9SM SCT018 M06/M10 A3033 RMK SLP286 =
2018-01-16 19:00 METAR CYPQ 161900Z AUTO 00000KT 9SM BKN018 M07/M10 A3033 RMK SLP286 =
2018-01-16 18:59 METAR CYPQ 161859Z AUTO 00000KT 9SM BKN018 M07/M10 A3033 RMK SLP286 =
2018-01-16 18:00 METAR CYPQ 161800Z AUTO VRB02KT 9SM SCT015 M08/M11 A3033 RMK SLP287 =
2018-01-16 17:56 METAR CYPQ 161756Z AUTO VRB02KT 9SM SCT015 M08/M12 A3033 RMK SLP288 =
2018-01-16 17:00 METAR CYPQ 161700Z AUTO VRB02KT 9SM OVC017 M10/M13 A3035 RMK SLP296 =
2018-01-16 16:51 METAR CYPQ 161651Z AUTO VRB02KT 9SM BKN017 M11/M13 A3036 RMK SLP297 =
2018-01-16 16:15 METAR CYPQ 161615Z AUTO VRB02KT 9SM -SN FEW010 OVC019 M11/M14 A3037 RMK SLP302 =
2018-01-16 16:00 METAR CYPQ 161600Z AUTO 33003KT 9SM FEW010 OVC021 M11/M14 A3037 RMK SLP303 =
2018-01-16 15:53 METAR CYPQ 161553Z AUTO VRB02KT 9SM OVC021 M12/M14 A3038 RMK SLP305 =
2018-01-16 15:19 METAR CYPQ 161519Z AUTO VRB02KT 6SM -SN BKN023 OVC028 M12/M14 A3037 RMK SLP302 =
2018-01-16 15:14 METAR CYPQ 161514Z AUTO VRB02KT 3SM -SN BKN023 OVC028 M12/M14 A3037 RMK SLP302 =
2018-01-16 15:11 METAR CYPQ 161511Z AUTO 00000KT 2 1/2SM -SN BKN021 OVC028 M12/M14 A3037 RMK VIS
                 VRB 1 1/2-3 SLP303 =
2018-01-16 15:08 METAR CYPQ 161508Z AUTO 01002KT 1 1/2SM -SN BKN021 BKN030 OVC034 M12/M14 A3037
                 RMK VIS VRB 5/8-3 SLP302 =
2018-01-16 15:00 METAR CYPQ 161500Z AUTO 03003KT 1 1/4SM -SN BKN021 OVC030 M13/M14 A3036 RMK VIS
                 VRB 5/8-2 1/2 SLP300 =
2018-01-16 14:50 METAR CYPQ 161450Z AUTO 04005KT 1 1/4SM -SN OVC019 M13/M14 A3036 RMK SLP299 =
2018-01-16 14:42 METAR CYPQ 161442Z AUTO 04004KT 1 3/4SM -SN OVC023 M13/M14 A3036 RMK SLP299 =
2018-01-16 14:35 METAR CYPQ 161435Z AUTO 05004KT 020V090 1 1/4SM -SN OVC023 M13/M15 A3036 RMK
                 SLP298 =
2018-01-16 14:13 METAR CYPQ 161413Z AUTO 04005KT 1 3/4SM -SN SCT010 OVC023 M13/M15 A3036 RMK VIS
                 VRB 1-2 1/2 SLP298 =
2018-01-16 14:11 METAR CYPQ 161411Z AUTO 04004KT 2SM -SN SCT010 OVC025 M13/M15 A3036 RMK VIS VRB
                 1-3 SLP298 =
2018-01-16 14:07 METAR CYPQ 161407Z AUTO 06004KT 030V090 2 1/4SM -SN BKN010 OVC025 M13/M15 A3036
                 RMK VIS VRB 1-3 SLP299 =
2018-01-16 14:05 METAR CYPQ 161405Z AUTO 06004KT 030V090 2 1/2SM -SN BKN010 OVC027 M13/M15 A3036
                 RMK VIS VRB 1-3 SLP299 =
2018-01-16 14:00 METAR CYPQ 161400Z AUTO 06004KT 030V090 5SM -SN OVC010 M13/M15 A3036 RMK SLP298
                 =
2018-01-16 13:22 METAR CYPQ 161322Z AUTO 06005KT 7SM -SN OVC010 M13/M15 A3035 RMK SLP295 =

Support USWX by starting your Amazon purchase here.